KAL23 VCBI-WMKK
Flight info
| Callsign | KAL23 |
|---|---|
| Flight time | N/A |
| Altitude | 39000 |
| Route | DUDAL1D VEVET P570 MABIX P756 ISVUR R461 PUGER PUGER1H |
| Aircraft | A342/H-SDE2E3FGHIJ4J5M1RWXY/LB1D1 |
Departure
| Time | 2026-05-05 08:32 |
|---|---|
| Airport | Bandaranaike International Colombo Airport (VCBI) |
Arrival
| Time | N/A |
|---|---|
| Airport | Kuala Lumpur International Airport (WMKK) |
| Time | Latitude | Longitude | Altitude | Speed | Heading |
|---|---|---|---|---|---|
| 2026-05-05 07:45 | 7.17705 | 79.88489 | 57 ft | 0 kts | 217° |
| 2026-05-05 08:21 | 7.17713 | 79.88495 | 57 ft | 2 kts | 217° |
| 2026-05-05 08:21 | 7.17725 | 79.88504 | 57 ft | 2 kts | 217° |
| 2026-05-05 08:21 | 7.17737 | 79.88513 | 57 ft | 2 kts | 217° |
| 2026-05-05 08:21 | 7.17749 | 79.88522 | 57 ft | 2 kts | 217° |
| 2026-05-05 08:22 | 7.17760 | 79.88532 | 58 ft | 2 kts | 241° |
| 2026-05-05 08:22 | 7.17765 | 79.88547 | 58 ft | 2 kts | 264° |
| 2026-05-05 08:22 | 7.17764 | 79.88561 | 58 ft | 2 kts | 285° |
| 2026-05-05 08:22 | 7.17758 | 79.88575 | 58 ft | 1 kts | 306° |
| 2026-05-05 08:23 | 7.17755 | 79.88579 | 58 ft | 0 kts | 308° |
| 2026-05-05 08:25 | 7.17767 | 79.88563 | 58 ft | 5 kts | 306° |
| 2026-05-05 08:25 | 7.17803 | 79.88514 | 57 ft | 11 kts | 307° |
| 2026-05-05 08:26 | 7.17858 | 79.88453 | 55 ft | 11 kts | 335° |
| 2026-05-05 08:26 | 7.17940 | 79.88474 | 54 ft | 14 kts | 34° |
| 2026-05-05 08:26 | 7.18028 | 79.88538 | 54 ft | 16 kts | 38° |
| 2026-05-05 08:26 | 7.18126 | 79.88613 | 56 ft | 17 kts | 38° |
| 2026-05-05 08:27 | 7.18229 | 79.88692 | 56 ft | 19 kts | 37° |
| 2026-05-05 08:27 | 7.18346 | 79.88782 | 56 ft | 21 kts | 38° |
| 2026-05-05 08:27 | 7.18476 | 79.88881 | 56 ft | 24 kts | 38° |
| 2026-05-05 08:27 | 7.18533 | 79.88925 | 56 ft | 3 kts | 37° |
| 2026-05-05 08:28 | 7.18545 | 79.88934 | 56 ft | 0 kts | 37° |
| 2026-05-05 08:28 | 7.18557 | 79.88943 | 56 ft | 5 kts | 37° |
| 2026-05-05 08:28 | 7.18601 | 79.88976 | 55 ft | 10 kts | 37° |
| 2026-05-05 08:29 | 7.18672 | 79.89031 | 54 ft | 14 kts | 38° |
| 2026-05-05 08:29 | 7.18764 | 79.89102 | 53 ft | 18 kts | 37° |
| 2026-05-05 08:29 | 7.18876 | 79.89188 | 51 ft | 21 kts | 39° |
| 2026-05-05 08:30 | 7.19132 | 79.89384 | 49 ft | 18 kts | 37° |
| 2026-05-05 08:30 | 7.19222 | 79.89395 | 49 ft | 13 kts | 326° |
| 2026-05-05 08:30 | 7.19284 | 79.89325 | 51 ft | 7 kts | 286° |
| 2026-05-05 08:30 | 7.19269 | 79.89270 | 52 ft | 9 kts | 234° |
| 2026-05-05 08:31 | 7.19215 | 79.89220 | 53 ft | 11 kts | 219° |
| 2026-05-05 08:31 | 7.19142 | 79.89162 | 54 ft | 14 kts | 217° |
| 2026-05-05 08:31 | 7.18958 | 79.89025 | 54 ft | 69 kts | 218° |
| 2026-05-05 08:31 | 7.18299 | 79.88516 | 54 ft | 158 kts | 218° |
| 2026-05-05 08:32 | 7.17276 | 79.87731 | 436 ft | 198 kts | 217° |
| 2026-05-05 08:32 | 7.16116 | 79.86824 | 1267 ft | 214 kts | 212° |
| 2026-05-05 08:32 | 7.14713 | 79.86594 | 2544 ft | 211 kts | 168° |
| 2026-05-05 08:32 | 7.13476 | 79.87267 | 3808 ft | 204 kts | 143° |
| 2026-05-05 08:33 | 7.12360 | 79.88123 | 4917 ft | 204 kts | 141° |
| 2026-05-05 08:33 | 7.11221 | 79.88944 | 5998 ft | 206 kts | 143° |
| 2026-05-05 08:33 | 7.10035 | 79.89712 | 7079 ft | 207 kts | 146° |
| 2026-05-05 08:33 | 7.08794 | 79.90456 | 8184 ft | 207 kts | 145° |
| 2026-05-05 08:34 | 7.07804 | 79.91390 | 9070 ft | 195 kts | 119° |
| 2026-05-05 08:34 | 7.07303 | 79.92651 | 9768 ft | 193 kts | 105° |
| 2026-05-05 08:34 | 7.06931 | 79.93983 | 10287 ft | 202 kts | 105° |
| 2026-05-05 08:34 | 7.06542 | 79.95401 | 10709 ft | 217 kts | 106° |
| 2026-05-05 08:35 | 7.06110 | 79.96941 | 11087 ft | 235 kts | 107° |
| 2026-05-05 08:35 | 7.05643 | 79.98576 | 11453 ft | 252 kts | 108° |
| 2026-05-05 08:35 | 7.05123 | 80.00380 | 11782 ft | 276 kts | 108° |
| 2026-05-05 08:35 | 7.04568 | 80.02288 | 12194 ft | 295 kts | 108° |
| 2026-05-05 08:36 | 7.03963 | 80.04357 | 12618 ft | 314 kts | 109° |
| 2026-05-05 08:36 | 7.03335 | 80.06519 | 13094 ft | 333 kts | 109° |
| 2026-05-05 08:36 | 7.02665 | 80.08826 | 13535 ft | 352 kts | 109° |
| 2026-05-05 08:36 | 7.01955 | 80.11261 | 13920 ft | 370 kts | 109° |
| 2026-05-05 08:37 | 7.01206 | 80.13830 | 14263 ft | 389 kts | 109° |